Time;durP1;ratioP1;P1;durP2;ratioP2;P2;SDS_P1;SDS_P2;PMS_P1;PMS_P2;Temp;Humidity;BMP_temperature;BMP_pressure;BME280_temperature;BME280_humidity;BME280_pressure;Samples;Min_cycle;Max_cycle;Signal;HPM_P1;HPM_P2
2022/05/24 00:00:59;;;;;;;4.07;2.90;;;;;;;17.95;53.34;98826.06;4979786;28;20029;-91
2022/05/24 00:03:24;;;;;;;7.75;3.00;;;;;;;17.87;53.40;98827.75;4963447;28;20025;-92
2022/05/24 00:05:50;;;;;;;5.60;3.08;;;;;;;17.85;53.72;98826.50;4980027;28;20026;-92
2022/05/24 00:08:15;;;;;;;6.90;3.35;;;;;;;17.78;53.51;98821.50;4963558;28;20032;-91
2022/05/24 00:10:41;;;;;;;7.15;3.47;;;;;;;17.81;53.58;98831.75;4963331;28;20029;-91
2022/05/24 00:13:08;;;;;;;7.75;3.05;;;;;;;17.91;52.78;98825.16;4979666;28;20049;-91
2022/05/24 00:15:33;;;;;;;6.97;3.25;;;;;;;17.90;53.44;98835.25;4964003;28;20120;-92
2022/05/24 00:18:09;;;;;;;6.93;3.17;;;;;;;17.93;53.74;98850.94;4963542;28;20017;-92
2022/05/24 00:20:38;;;;;;;8.00;3.00;;;;;;;17.94;53.59;98843.56;4979518;28;20084;-91
2022/05/24 00:23:04;;;;;;;7.47;3.20;;;;;;;17.82;53.23;98825.16;4979133;28;20041;-92
2022/05/24 00:25:31;;;;;;;8.75;3.10;;;;;;;17.92;52.98;98833.00;4963440;28;20053;-93
2022/05/24 00:27:56;;;;;;;8.15;3.63;;;;;;;17.90;52.74;98820.84;4979638;28;20029;-91
2022/05/24 00:30:22;;;;;;;5.03;3.00;;;;;;;17.93;52.58;98814.75;4963661;28;20069;-91
2022/05/24 00:32:47;;;;;;;6.50;3.00;;;;;;;17.89;52.83;98811.09;4963271;28;20026;-92
2022/05/24 00:35:13;;;;;;;7.35;3.03;;;;;;;17.84;53.27;98824.88;4979243;28;20073;-91
2022/05/24 00:37:39;;;;;;;5.53;2.78;;;;;;;17.93;52.88;98828.38;4963416;28;20060;-91
2022/05/24 00:40:07;;;;;;;6.38;3.10;;;;;;;17.86;53.06;98823.41;4979647;28;20022;-90
2022/05/24 00:42:36;;;;;;;4.13;2.70;;;;;;;17.96;52.62;98822.25;4979843;28;20049;-90
2022/05/24 00:45:05;;;;;;;8.77;2.75;;;;;;;18.00;52.62;98831.34;4963774;28;20032;-91
2022/05/24 00:47:37;;;;;;;4.22;2.80;;;;;;;18.08;52.54;98838.66;4979488;28;20103;-91
2022/05/24 00:50:14;;;;;;;4.72;2.90;;;;;;;18.03;52.21;98824.44;4963730;28;20531;-91
2022/05/24 00:52:45;;;;;;;4.03;2.50;;;;;;;18.22;52.18;98848.50;4963329;28;20026;-93
2022/05/24 00:55:12;;;;;;;9.07;4.93;;;;;;;18.14;52.02;98831.09;4979835;28;20088;-91
2022/05/24 00:57:49;;;;;;;9.25;2.75;;;;;;;18.12;51.92;98825.19;4963395;28;20117;-91
2022/05/24 01:00:20;;;;;;;6.00;2.95;;;;;;;18.17;51.58;98819.53;4979129;28;20057;-90
2022/05/24 01:02:46;;;;;;;4.80;2.90;;;;;;;18.12;52.03;98812.34;4962980;28;20040;-90
2022/05/24 01:05:17;;;;;;;5.40;2.67;;;;;;;18.11;52.57;98818.91;4979396;28;20043;-92
2022/05/24 01:07:43;;;;;;;;;;;;;;;18.18;51.93;98829.31;4963804;28;20491;-93
2022/05/24 01:10:11;;;;;;;8.45;2.85;;;;;;;18.06;51.88;98810.94;4979279;28;19948;-91
2022/05/24 01:12:43;;;;;;;5.18;2.58;;;;;;;18.04;52.38;98817.88;4962930;28;20030;-92
2022/05/24 01:15:09;;;;;;;8.43;2.70;;;;;;;17.97;52.42;98815.66;4963614;28;20026;-93
2022/05/24 01:17:34;;;;;;;4.15;2.50;;;;;;;17.90;52.78;98810.72;4978795;28;20498;-91
2022/05/24 01:20:00;;;;;;;6.47;2.78;;;;;;;17.94;51.90;98802.72;4978967;28;20026;-92
2022/05/24 01:22:49;;;;;;;8.00;2.50;;;;;;;18.08;51.59;98813.34;4962785;28;20041;-92
2022/05/24 01:25:21;;;;;;;5.78;2.60;;;;;;;18.10;51.87;98825.50;4978923;28;20030;-92
2022/05/24 01:27:46;;;;;;;4.38;2.40;;;;;;;17.97;51.96;98808.28;4978912;28;20029;-93
2022/05/24 01:30:12;;;;;;;5.95;2.67;;;;;;;18.08;51.37;98816.06;4962895;28;20033;-93
2022/05/24 01:38:06;;;;;;;7.40;2.53;;;;;;;18.22;50.74;98819.34;4987686;28;20040;-92
2022/05/24 01:40:32;;;;;;;4.13;2.35;;;;;;;18.12;50.65;98804.19;4966031;28;20101;-91
2022/05/24 01:42:57;;;;;;;4.93;2.42;;;;;;;18.22;50.73;98823.97;4966147;28;20080;-92
2022/05/24 01:45:27;;;;;;;9.70;2.53;;;;;;;18.17;50.78;98814.06;4982344;28;20034;-92
2022/05/24 01:47:59;;;;;;;9.68;2.50;;;;;;;18.04;50.91;98804.25;4966439;28;20460;-91
2022/05/24 01:50:24;;;;;;;8.30;2.67;;;;;;;18.00;51.14;98806.81;4982253;28;20492;-91
2022/05/24 01:52:54;;;;;;;6.82;2.53;;;;;;;17.89;51.60;98805.63;4965857;28;20033;-92
2022/05/24 01:55:25;;;;;;;4.60;2.30;;;;;;;17.68;52.18;98797.38;4982396;28;20033;-91
2022/05/24 01:57:52;;;;;;;5.57;2.15;;;;;;;17.80;51.54;98802.91;4966588;28;20417;-91
2022/05/24 02:00:18;;;;;;;5.28;2.58;;;;;;;17.71;51.92;98783.13;4981825;28;20066;-91
2022/05/24 02:02:43;;;;;;;5.25;2.30;;;;;;;17.88;51.79;98818.44;4965673;28;20480;-91
2022/05/24 02:05:10;;;;;;;8.23;2.92;;;;;;;17.70;51.83;98797.84;4965575;28;20116;-91
2022/05/24 02:07:36;;;;;;;4.35;2.10;;;;;;;17.66;51.80;98796.91;4965566;28;20025;-91
2022/05/24 02:10:01;;;;;;;3.70;2.17;;;;;;;17.74;51.40;98821.41;4965636;28;20018;-91
2022/05/24 02:12:38;;;;;;;4.30;2.67;;;;;;;17.66;51.64;98811.34;4965617;28;20033;-91
2022/05/24 02:15:08;;;;;;;4.80;2.38;;;;;;;17.74;51.32;98837.72;4966365;28;20033;-92
2022/05/24 02:18:03;;;;;;;5.75;1.85;;;;;;;17.66;51.51;98826.88;4981545;28;20124;-91
2022/05/24 02:20:40;;;;;;;3.42;2.28;;;;;;;17.62;51.46;98817.75;4965977;28;20032;-92
2022/05/24 02:23:06;;;;;;;7.07;2.22;;;;;;;17.64;51.58;98835.38;4966164;28;20107;-92
2022/05/24 02:25:53;;;;;;;7.60;2.30;;;;;;;17.70;51.60;98830.53;4966349;28;20127;-91
2022/05/24 02:28:19;;;;;;;8.50;2.25;;;;;;;17.51;52.00;98823.56;4982230;28;20033;-95
2022/05/24 02:30:47;;;;;;;6.40;2.40;;;;;;;17.50;51.48;98808.38;4965920;28;20095;-96
2022/05/24 02:33:13;;;;;;;6.65;2.25;;;;;;;17.48;51.64;98810.63;4966658;28;20053;-95
2022/05/24 02:35:38;;;;;;;5.30;2.10;;;;;;;17.58;51.64;98829.31;4966689;28;20571;-95
2022/05/24 02:38:04;;;;;;;6.68;2.08;;;;;;;17.55;52.03;98824.53;4965438;28;20033;-95
2022/05/24 02:43:14;;;;;;;5.53;1.80;;;;;;;17.40;51.80;98814.19;4987213;28;20180;-95
2022/05/24 02:45:39;;;;;;;7.40;2.20;;;;;;;17.47;51.60;98828.09;4965852;28;20492;-95
2022/05/24 02:48:06;;;;;;;6.70;2.50;;;;;;;17.43;51.76;98818.19;4965307;28;20026;-95
2022/05/24 02:50:31;;;;;;;5.53;2.00;;;;;;;17.50;51.53;98838.31;4965474;28;20128;-95
2022/05/24 02:52:57;;;;;;;7.13;1.95;;;;;;;17.50;51.77;98843.78;4965377;28;20022;-96
2022/05/24 02:55:23;;;;;;;7.28;2.38;;;;;;;17.46;51.95;98842.03;4965492;28;20543;-95
2022/05/24 02:57:48;;;;;;;6.15;2.00;;;;;;;17.29;51.97;98840.97;4965693;28;20446;-95
2022/05/24 03:00:17;;;;;;;11.55;2.70;;;;;;;17.20;52.19;98833.97;4981142;28;20071;-95
2022/05/24 03:02:43;;;;;;;6.22;2.30;;;;;;;17.36;51.88;98840.47;4965444;28;20025;-95
2022/05/24 03:05:10;;;;;;;7.13;2.30;;;;;;;17.44;51.66;98841.56;4965091;28;20025;-96
2022/05/24 03:10:23;;;;;;;8.80;2.38;;;;;;;17.33;52.56;98844.66;4986828;28;20064;-96
2022/05/24 03:15:33;;;;;;;7.38;2.65;;;;;;;17.35;52.75;98856.00;4986514;28;20111;-93
2022/05/24 03:17:59;;;;;;;7.35;2.40;;;;;;;17.38;52.23;98849.91;4965382;28;20403;-95
2022/05/24 03:20:26;;;;;;;6.07;2.05;;;;;;;17.36;51.39;98852.16;4964953;28;20033;-96
2022/05/24 03:22:52;;;;;;;6.20;2.38;;;;;;;17.27;51.93;98835.06;4981628;28;20033;-96
2022/05/24 03:25:17;;;;;;;10.32;3.10;;;;;;;17.46;51.87;98864.59;4965181;28;20037;-91
2022/05/24 03:27:43;;;;;;;10.70;2.50;;;;;;;17.40;51.37;98849.56;4980763;28;20388;-91
2022/05/24 03:30:09;;;;;;;6.75;2.40;;;;;;;17.42;51.52;98844.59;4980400;28;20092;-91
2022/05/24 03:32:34;;;;;;;8.73;2.30;;;;;;;17.28;54.00;98835.84;4964506;28;20049;-91
2022/05/24 03:35:04;;;;;;;5.82;2.55;;;;;;;17.19;54.19;98841.34;4964169;28;20037;-91
2022/05/24 03:37:30;;;;;;;10.18;2.88;;;;;;;17.16;55.49;98841.97;4964255;28;20026;-91
2022/05/24 03:39:55;;;;;;;7.25;2.55;;;;;;;17.10;54.95;98846.00;4964171;28;20416;-91
2022/05/24 03:42:21;;;;;;;4.97;2.70;;;;;;;17.11;55.98;98847.59;4964351;28;20026;-92
2022/05/24 03:44:46;;;;;;;8.48;2.70;;;;;;;17.09;55.60;98842.47;4979984;28;20045;-91
2022/05/24 03:47:12;;;;;;;6.65;2.60;;;;;;;17.11;54.22;98840.22;4963971;28;20026;-91
2022/05/24 03:49:37;;;;;;;11.95;2.70;;;;;;;17.12;54.58;98850.00;4963808;28;20045;-92
2022/05/24 03:52:03;;;;;;;5.82;2.55;;;;;;;17.16;53.79;98841.97;4979899;28;20056;-91
2022/05/24 03:54:29;;;;;;;3.97;2.00;;;;;;;17.14;53.96;98839.59;4979770;28;20037;-92
2022/05/24 03:59:41;;;;;;;10.82;2.33;;;;;;;17.40;52.88;98856.94;4985138;28;20511;-91
2022/05/24 04:02:06;;;;;;;11.88;2.63;;;;;;;17.42;51.46;98846.53;4963518;28;20030;-91
2022/05/24 04:04:32;;;;;;;4.97;1.85;;;;;;;17.52;50.45;98844.25;4980092;28;20530;-91
2022/05/24 04:06:58;;;;;;;9.85;2.75;;;;;;;17.72;49.79;98859.03;4963623;28;20427;-91
2022/05/24 04:09:23;;;;;;;5.50;1.77;;;;;;;17.74;48.91;98853.25;4963865;28;20116;-91
2022/05/24 04:11:48;;;;;;;6.60;1.90;;;;;;;17.83;48.85;98845.09;4979637;28;20092;-91
2022/05/24 04:14:14;;;;;;;6.38;2.10;;;;;;;17.92;48.72;98856.72;4979835;28;20037;-93
2022/05/24 04:16:39;;;;;;;8.40;2.58;;;;;;;17.81;51.39;98864.44;4963677;28;20052;-91
2022/05/24 04:19:05;;;;;;;14.65;3.85;;;;;;;17.81;53.30;98867.16;4963520;28;20026;-91
2022/05/24 04:21:31;;;;;;;7.53;3.55;;;;;;;17.77;54.25;98872.47;4963380;28;20022;-91
2022/05/24 04:23:57;;;;;;;8.40;2.75;;;;;;;17.73;54.41;98852.47;4963363;28;20030;-92
2022/05/24 04:26:23;;;;;;;6.55;3.03;;;;;;;17.70;53.92;98863.19;4996222;28;20045;-91
2022/05/24 04:28:48;;;;;;;9.27;2.42;;;;;;;17.73;53.21;98876.19;4979860;28;20021;-90
2022/05/24 04:31:14;;;;;;;5.47;3.17;;;;;;;17.60;53.11;98869.84;4963186;28;20018;-90
2022/05/24 04:33:39;;;;;;;9.80;3.72;;;;;;;17.49;53.41;98854.97;4995345;28;20026;-92
2022/05/24 04:36:05;;;;;;;8.52;3.70;;;;;;;17.65;53.57;98871.56;4979284;28;20026;-90
2022/05/24 04:38:30;;;;;;;11.02;2.40;;;;;;;17.73;53.02;98878.91;4978957;28;20029;-90
2022/05/24 04:43:40;;;;;;;11.13;2.40;;;;;;;17.73;52.55;98852.47;4984422;28;20411;-90
2022/05/24 04:46:05;;;;;;;25.10;3.50;;;;;;;17.97;51.57;98875.56;4963193;28;20029;-92
2022/05/24 04:48:31;;;;;;;6.72;2.60;;;;;;;18.06;51.10;98876.34;4978922;28;20117;-90
2022/05/24 04:50:57;;;;;;;6.43;2.80;;;;;;;18.10;49.89;98860.94;4963492;28;20034;-92
2022/05/24 04:53:23;;;;;;;12.75;2.65;;;;;;;18.36;48.76;98866.19;4963449;28;20483;-90
2022/05/24 04:55:49;;;;;;;13.43;2.80;;;;;;;18.51;47.04;98853.88;4979049;28;20032;-90
2022/05/24 04:58:17;;;;;;;4.57;1.83;;;;;;;18.69;47.27;98859.97;4963466;28;20088;-90
2022/05/24 05:00:43;;;;;;;6.47;1.77;;;;;;;18.93;46.02;98877.59;4963094;28;20037;-90
2022/05/24 05:03:09;;;;;;;2.88;1.52;;;;;;;18.99;45.57;98876.25;4978772;28;20480;-90
2022/05/24 05:05:34;;;;;;;7.93;2.28;;;;;;;19.04;46.26;98867.06;4962889;28;20116;-92
2022/05/24 05:08:00;;;;;;;7.65;1.90;;;;;;;19.21;45.52;98880.50;4979152;28;20097;-91
2022/05/24 05:10:25;;;;;;;6.47;2.00;;;;;;;19.35;44.11;98872.00;4981862;28;20045;-91
2022/05/24 05:12:51;;;;;;;7.68;3.50;;;;;;;19.45;44.37;98878.97;4966725;28;20029;-92
2022/05/24 05:15:16;;;;;;;8.50;1.80;;;;;;;19.54;45.07;98882.38;4966555;28;20459;-91
2022/05/24 05:17:42;;;;;;;6.88;1.70;;;;;;;19.43;44.71;98860.19;4966391;28;20045;-92
2022/05/24 05:20:08;;;;;;;8.60;2.30;;;;;;;19.50;44.82;98871.31;4982624;28;20048;-91
2022/05/24 05:22:34;;;;;;;7.80;2.00;;;;;;;19.74;42.98;98870.56;4982731;28;20030;-92
2022/05/24 05:24:59;;;;;;;6.90;2.85;;;;;;;19.91;42.07;98869.53;4998389;28;20021;-91
2022/05/24 05:27:25;;;;;;;4.60;1.85;;;;;;;20.24;41.41;98895.13;4967851;28;20480;-90
2022/05/24 05:32:34;;;;;;;8.68;1.42;;;;;;;20.42;40.35;98887.44;4988052;28;20088;-92
2022/05/24 05:35:00;;;;;;;3.97;1.63;;;;;;;20.54;39.71;98892.88;4966880;28;20045;-92
2022/05/24 05:37:27;;;;;;;5.45;2.10;;;;;;;20.60;39.27;98877.84;4982795;28;20480;-93
2022/05/24 05:39:52;;;;;;;5.13;2.05;;;;;;;20.72;39.09;98882.47;4967053;28;20061;-93
2022/05/24 05:42:19;;;;;;;4.75;2.17;;;;;;;20.74;38.73;98883.72;4981895;28;20061;-92
2022/05/24 05:44:45;;;;;;;7.88;2.72;;;;;;;20.69;38.71;98867.56;4982077;28;20037;-91
2022/05/24 05:47:10;;;;;;;6.07;1.55;;;;;;;20.86;38.44;98874.66;4982202;28;20096;-91
2022/05/24 05:49:36;;;;;;;7.65;1.70;;;;;;;20.96;38.41;98887.84;4982013;28;20050;-92
2022/05/24 05:52:01;;;;;;;9.38;1.70;;;;;;;20.82;38.64;98870.25;4982629;28;20030;-93
2022/05/24 05:54:27;;;;;;;5.40;1.85;;;;;;;20.88;38.25;98871.59;4966168;28;20026;-92
2022/05/24 05:56:52;;;;;;;9.45;2.08;;;;;;;21.00;37.72;98882.47;4966505;28;20026;-92
2022/05/24 05:59:18;;;;;;;3.17;1.67;;;;;;;21.10;37.74;98883.88;4983033;28;20084;-94
2022/05/24 06:01:45;;;;;;;6.43;2.17;;;;;;;21.16;37.83;98888.75;4966472;28;20145;-92
2022/05/24 06:04:10;;;;;;;6.55;2.75;;;;;;;21.15;37.90;98889.13;4982697;28;20026;-92
2022/05/24 06:06:41;;;;;;;5.72;1.80;;;;;;;21.39;37.60;98907.34;4982266;28;20033;-92
2022/05/24 06:09:06;;;;;;;4.35;2.10;;;;;;;21.49;37.76;98903.31;4966437;28;20029;-93
2022/05/24 06:11:37;;;;;;;9.30;2.25;;;;;;;21.61;37.35;98894.22;4965859;28;20417;-92
2022/05/24 06:14:02;;;;;;;5.07;1.65;;;;;;;21.67;37.16;98893.59;4981974;28;20081;-93
2022/05/24 06:16:28;;;;;;;6.75;2.10;;;;;;;21.67;37.19;98895.56;4966219;28;20113;-92
2022/05/24 06:18:53;;;;;;;9.05;1.85;;;;;;;21.45;37.76;98886.78;4966589;28;20030;-93
2022/05/24 06:21:19;;;;;;;7.18;2.03;;;;;;;21.50;37.71;98893.94;4965965;28;20030;-94
2022/05/24 06:23:44;;;;;;;9.30;1.70;;;;;;;21.46;38.08;98899.34;4982677;28;20029;-93
2022/05/24 06:26:10;;;;;;;6.10;1.65;;;;;;;21.59;38.09;98898.09;4966119;28;20030;-93
2022/05/24 06:28:36;;;;;;;7.43;2.05;;;;;;;21.66;38.65;98891.19;4966079;28;20046;-93
2022/05/24 06:31:01;;;;;;;6.25;1.70;;;;;;;21.91;37.83;98902.75;4982638;28;20026;-94
2022/05/24 06:33:27;;;;;;;11.35;2.58;;;;;;;22.09;36.50;98909.47;4966869;28;20029;-93
2022/05/24 06:35:55;;;;;;;4.82;1.55;;;;;;;22.07;37.69;98906.28;4982196;28;20028;-94
2022/05/24 06:38:20;;;;;;;5.22;1.42;;;;;;;22.14;37.34;98909.19;4965523;28;20033;-93
2022/05/24 06:40:47;;;;;;;7.50;2.38;;;;;;;22.22;36.35;98906.59;4982728;28;20041;-93
2022/05/24 06:43:13;;;;;;;5.78;2.30;;;;;;;22.38;36.96;98899.94;4967063;28;20121;-93
2022/05/24 06:45:39;;;;;;;7.10;1.88;;;;;;;22.37;37.24;98890.13;4981899;28;20018;-91
2022/05/24 06:48:14;;;;;;;6.65;1.58;;;;;;;22.42;36.94;98911.00;4997983;28;20026;-92
2022/05/24 06:50:40;;;;;;;3.83;1.67;;;;;;;22.29;36.90;98888.41;4981266;28;20038;-91
2022/05/24 06:53:06;;;;;;;5.95;1.95;;;;;;;22.40;36.82;98902.34;4981000;28;20389;-91
2022/05/24 06:55:31;;;;;;;2.20;1.40;;;;;;;22.45;38.16;98912.22;4981258;28;20034;-92
2022/05/24 06:57:57;;;;;;;8.63;1.92;;;;;;;22.63;37.11;98909.88;4980192;28;20053;-90
2022/05/24 07:03:10;;;;;;;4.57;1.67;;;;;;;22.92;36.19;98911.22;4985882;28;20052;-93
2022/05/24 07:05:35;;;;;;;5.60;1.35;;;;;;;22.85;35.70;98887.19;4964995;28;20125;-90
2022/05/24 07:08:01;;;;;;;9.60;1.77;;;;;;;22.86;36.04;98902.47;4965063;28;20116;-90
2022/05/24 07:10:28;;;;;;;6.53;2.33;;;;;;;22.84;36.56;98895.78;4980740;28;20088;-93
2022/05/24 07:13:04;;;;;;;6.47;1.67;;;;;;;23.01;36.21;98909.06;4980785;28;20034;-91
2022/05/24 07:15:30;;;;;;;8.40;2.42;;;;;;;23.07;36.19;98899.38;4967062;28;20030;-90
2022/05/24 07:17:56;;;;;;;4.82;1.50;;;;;;;23.10;36.32;98903.38;4985075;28;20053;-92
2022/05/24 07:20:22;;;;;;;7.05;1.60;;;;;;;23.23;35.74;98898.50;4982153;28;20599;-93
2022/05/24 07:22:48;;;;;;;12.32;2.88;;;;;;;23.33;36.23;98906.16;4966843;28;20117;-92
2022/05/24 07:25:14;;;;;;;2.90;1.67;;;;;;;23.29;35.89;98897.84;4982126;28;20083;-92
2022/05/24 07:27:40;;;;;;;3.78;1.50;;;;;;;23.52;34.83;98916.28;4964345;28;20034;-92
2022/05/24 07:30:06;;;;;;;4.53;1.88;;;;;;;23.46;36.43;98926.00;4964601;28;20385;-92
2022/05/24 07:32:32;;;;;;;4.13;1.55;;;;;;;23.44;35.69;98901.63;4980729;28;20026;-93
2022/05/24 07:34:59;;;;;;;4.75;1.80;;;;;;;23.58;35.72;98890.88;4964596;28;20037;-91
2022/05/24 07:37:24;;;;;;;7.07;1.70;;;;;;;23.46;35.63;98896.56;4965741;28;20052;-92
2022/05/24 07:45:47;;;;;;;5.10;1.75;;;;;;;23.69;35.22;98910.28;4965007;28;20030;-91
2022/05/24 07:48:04;;;;;;;4.65;1.52;;;;;;;24.10;34.39;98898.78;4985410;28;20404;-92
2022/05/24 07:50:30;;;;;;;6.90;3.10;;;;;;;24.29;34.55;98898.63;4964113;28;20058;-94
2022/05/24 07:52:56;;;;;;;5.43;1.70;;;;;;;24.32;34.94;98880.59;4981812;28;20040;-92
2022/05/24 07:55:21;;;;;;;5.82;3.65;;;;;;;24.39;34.19;98888.94;4967062;28;20441;-92
2022/05/24 07:57:47;;;;;;;4.03;1.60;;;;;;;24.43;34.30;98889.00;4981545;28;20022;-91
2022/05/24 08:00:13;;;;;;;6.35;1.90;;;;;;;24.50;34.66;98898.16;4968346;28;20041;-92
2022/05/24 08:02:39;;;;;;;6.30;1.80;;;;;;;24.63;34.42;98901.47;4964498;28;20030;-94
2022/05/24 08:05:05;;;;;;;6.72;1.60;;;;;;;24.46;35.00;98893.75;4964389;28;20117;-92
2022/05/24 08:07:31;;;;;;;2.13;1.20;;;;;;;24.45;34.27;98897.69;4964150;28;20033;-92
2022/05/24 08:09:57;;;;;;;5.18;1.48;;;;;;;24.56;34.34;98896.66;4963792;28;20472;-92
2022/05/24 08:12:22;;;;;;;6.50;1.63;;;;;;;24.70;34.12;98884.25;4980474;28;20040;-92
2022/05/24 08:14:50;;;;;;;7.97;1.60;;;;;;;24.89;34.16;98886.03;4980782;28;20083;-91
2022/05/24 08:17:16;;;;;;;7.28;1.70;;;;;;;25.01;33.86;98891.28;4996241;28;20030;-93
2022/05/24 08:19:55;;;;;;;6.88;1.63;;;;;;;25.09;34.22;98892.94;4997684;28;20463;-92
2022/05/24 08:22:28;;;;;;;4.53;1.52;;;;;;;25.16;33.01;98900.50;4981399;28;20038;-95
2022/05/24 08:24:55;;;;;;;2.72;1.30;;;;;;;25.19;33.02;98886.75;4998968;28;20034;-93
2022/05/24 08:27:21;;;;;;;9.80;2.95;;;;;;;25.23;32.94;98891.53;4979624;28;20017;-90
2022/05/24 08:29:46;;;;;;;3.78;1.90;;;;;;;25.39;32.53;98900.34;4978550;28;20036;-90
2022/05/24 08:32:18;;;;;;;5.72;1.83;;;;;;;25.23;34.02;98886.81;4963619;28;20048;-93
2022/05/24 08:34:44;;;;;;;4.47;1.60;;;;;;;25.40;33.06;98890.91;4978868;28;20034;-91
2022/05/24 08:37:15;;;;;;;3.03;1.30;;;;;;;25.43;32.80;98892.13;4979550;28;20041;-90
2022/05/24 08:39:41;;;;;;;4.38;1.77;;;;;;;25.61;32.53;98899.38;4979772;28;20034;-91
2022/05/24 08:42:48;;;;;;;4.15;1.90;;;;;;;25.46;32.66;98900.41;4995676;28;20068;-91
2022/05/24 08:50:52;;;;;;;5.07;2.50;;;;;;;25.27;33.24;98892.34;4963814;28;20566;-90
2022/05/24 08:53:33;;;;;;;3.70;1.67;;;;;;;25.34;33.20;98893.22;4958614;28;20488;-91
2022/05/24 08:56:02;;;;;;;7.00;2.67;;;;;;;25.35;33.37;98888.50;4959828;28;20408;-91
2022/05/24 08:58:38;;;;;;;7.05;2.10;;;;;;;25.52;32.84;98909.91;4958813;28;20038;-94
2022/05/24 09:01:56;;;;;;;6.05;2.25;;;;;;;25.60;33.18;98908.00;4945315;28;20513;-93
2022/05/24 09:04:22;;;;;;;4.88;2.10;;;;;;;25.57;33.51;98903.28;4993788;28;20054;-93
2022/05/24 09:07:07;;;;;;;10.98;2.83;;;;;;;25.68;34.07;98911.63;4974286;28;20030;-91
2022/05/24 09:10:06;;;;;;;4.75;2.00;;;;;;;25.90;32.63;98929.16;4974060;28;20022;-92
2022/05/24 09:13:24;;;;;;;7.55;2.35;;;;;;;25.77;32.73;98910.16;4974915;28;20070;-90
2022/05/24 09:16:15;;;;;;;9.85;2.35;;;;;;;25.83;33.54;98920.81;4964940;28;20110;-90
2022/05/24 09:19:06;;;;;;;5.75;1.98;;;;;;;25.98;33.52;98917.00;4978330;28;20034;-91
2022/05/24 09:21:52;;;;;;;8.98;2.13;;;;;;;25.94;33.48;98905.97;4996980;28;20037;-95
2022/05/24 09:24:44;;;;;;;11.18;3.72;;;;;;;25.86;33.49;98920.03;4982445;28;20057;-95
2022/05/24 09:27:51;;;;;;;6.70;3.03;;;;;;;25.92;32.99;98910.25;4979866;28;20037;-96
2022/05/24 09:30:50;;;;;;;4.78;2.63;;;;;;;25.93;32.90;98895.31;4945919;28;20111;-95
2022/05/24 09:33:42;;;;;;;7.65;3.33;;;;;;;25.98;32.72;98906.78;4942758;28;20143;-95
2022/05/24 09:39:44;;;;;;;9.35;2.08;;;;;;;25.97;32.57;98896.13;4838776;29;20042;-91
2022/05/24 09:42:31;;;;;;;8.20;3.42;;;;;;;26.00;32.44;98926.50;4901104;29;20118;-90
2022/05/24 09:45:22;;;;;;;6.53;2.17;;;;;;;26.07;32.69;98919.44;4916411;29;20054;-90
2022/05/24 09:47:55;;;;;;;8.20;2.15;;;;;;;26.03;33.11;98913.13;4903976;29;20031;-93
2022/05/24 09:50:40;;;;;;;7.03;2.30;;;;;;;25.85;33.24;98902.69;4916705;29;20043;-92
2022/05/24 09:53:15;;;;;;;15.02;2.90;;;;;;;26.24;33.23;98923.50;4916654;29;20414;-91
2022/05/24 09:55:47;;;;;;;5.93;2.40;;;;;;;26.22;32.53;98912.84;4919051;29;20113;-93
2022/05/24 09:58:30;;;;;;;8.65;2.25;;;;;;;26.18;32.79;98907.28;4920629;29;20418;-91
2022/05/24 10:01:14;;;;;;;5.95;2.45;;;;;;;26.26;32.99;98932.97;4918435;28;20045;-92
2022/05/24 10:03:47;;;;;;;6.22;2.13;;;;;;;26.21;33.06;98916.78;4942048;28;20034;-92
2022/05/24 10:06:31;;;;;;;6.63;2.65;;;;;;;26.03;33.60;98910.34;4949574;28;20049;-91
2022/05/24 10:08:59;;;;;;;7.90;2.72;;;;;;;26.09;33.72;98928.91;4966553;28;20022;-92
2022/05/24 10:11:48;;;;;;;7.82;4.65;;;;;;;26.15;32.64;98923.84;4965491;28;20040;-92
2022/05/24 10:14:34;;;;;;;7.22;2.33;;;;;;;26.15;32.46;98938.41;4965648;28;20049;-91
2022/05/24 10:17:14;;;;;;;8.20;2.55;;;;;;;26.07;32.80;98923.00;4997728;28;20038;-90
2022/05/24 10:19:51;;;;;;;5.22;2.15;;;;;;;26.12;33.35;98925.38;4966519;28;20033;-92
2022/05/24 10:22:44;;;;;;;4.75;2.40;;;;;;;26.15;32.78;98915.56;5015465;28;20044;-91
2022/05/24 10:25:39;;;;;;;3.70;1.80;;;;;;;26.27;33.09;98914.44;4997522;28;20022;-91
2022/05/24 10:28:40;;;;;;;16.23;2.83;;;;;;;26.29;33.81;98921.13;5000055;28;20057;-91
2022/05/24 10:31:14;;;;;;;7.63;1.95;;;;;;;26.20;34.34;98909.66;4999730;28;20026;-93
2022/05/24 10:40:14;;;;;;;5.35;2.72;;;;;;;25.81;35.84;98905.41;4996638;28;20051;-95
2022/05/24 10:43:01;;;;;;;5.50;2.40;;;;;;;25.73;35.53;98914.03;4981702;28;20064;-91
2022/05/24 10:46:01;;;;;;;4.82;2.15;;;;;;;25.60;36.20;98906.03;4997191;28;20037;-92
2022/05/24 10:48:33;;;;;;;5.07;2.10;;;;;;;25.30;36.56;98913.66;4977547;28;20124;-92
2022/05/24 10:51:07;;;;;;;;;;;;;;;25.09;36.88;98919.69;4993927;28;20492;-93
2022/05/24 10:53:47;;;;;;;2.90;1.80;;;;;;;24.95;37.16;98903.81;4978560;28;19909;-91
2022/05/24 10:56:33;;;;;;;4.65;1.88;;;;;;;24.89;36.89;98914.38;4977404;28;20022;-91
2022/05/24 10:59:05;;;;;;;4.75;1.92;;;;;;;24.49;37.92;98898.53;4977128;28;20125;-91
2022/05/24 11:01:33;;;;;;;3.63;2.08;;;;;;;24.54;37.75;98887.19;4961529;28;20034;-90
2022/05/24 11:04:04;;;;;;;7.53;3.05;;;;;;;24.44;38.07;98885.06;4961290;28;20112;-90
2022/05/24 11:06:39;;;;;;;6.55;2.22;;;;;;;24.31;38.39;98901.81;4961434;28;20034;-91
2022/05/24 11:09:18;;;;;;;6.97;2.08;;;;;;;24.27;38.47;98953.25;4978197;28;20038;-92
2022/05/24 11:12:06;;;;;;;3.92;1.92;;;;;;;24.15;39.43;99009.25;4977628;28;20034;-92
2022/05/24 11:14:45;;;;;;;7.50;3.25;;;;;;;23.89;40.24;99042.22;4976964;28;20022;-92
2022/05/24 11:17:11;;;;;;;25.70;3.88;;;;;;;23.77;46.41;99101.72;4994358;28;20531;-92
2022/05/24 11:19:40;;;;;;;17.17;3.85;;;;;;;23.29;51.15;99153.31;4961707;28;20038;-94
2022/05/24 11:22:41;;;;;;;12.93;3.22;;;;;;;22.25;55.16;99199.41;5000077;28;20030;-94
2022/05/24 11:25:17;;;;;;;12.98;4.07;;;;;;;21.55;59.32;99209.53;4997248;28;20043;-94
2022/05/24 11:28:05;;;;;;;9.60;3.60;;;;;;;20.81;60.43;99207.97;4995826;28;20117;-93
2022/05/24 11:30:34;;;;;;;6.75;3.00;;;;;;;20.19;59.17;99194.94;4979518;28;20049;-93
2022/05/24 11:33:03;;;;;;;6.90;3.42;;;;;;;20.04;61.75;99227.56;4961765;28;20045;-96
2022/05/24 11:35:35;;;;;;;9.15;3.70;;;;;;;19.67;62.40;99249.19;4994882;28;20030;-95
2022/05/24 11:38:26;;;;;;;11.38;3.80;;;;;;;19.33;64.72;99261.94;4978378;28;20057;-94
2022/05/24 11:40:54;;;;;;;16.13;5.60;;;;;;;18.73;71.18;99193.63;4981828;28;20489;-94
2022/05/24 11:43:36;;;;;;;17.35;7.00;;;;;;;18.46;73.76;99117.72;4994864;28;20045;-95
2022/05/24 11:46:10;;;;;;;12.75;5.57;;;;;;;18.38;72.61;99109.25;4995290;28;20046;-95
2022/05/24 11:48:45;;;;;;;9.60;5.93;;;;;;;18.67;73.12;99117.78;4963343;28;20089;-95
2022/05/24 11:51:32;;;;;;;12.13;6.38;;;;;;;18.41;75.80;99053.28;4994075;28;20034;-93
2022/05/24 11:54:00;;;;;;;11.50;5.97;;;;;;;18.11;75.94;99023.25;4977628;28;20125;-93
2022/05/24 11:56:26;;;;;;;15.60;6.57;;;;;;;18.14;76.15;98981.75;4978504;28;20041;-93
2022/05/24 11:58:58;;;;;;;16.25;7.45;;;;;;;17.89;77.64;98890.06;4961639;28;20027;-94
2022/05/24 12:01:24;;;;;;;17.60;8.60;;;;;;;17.89;77.84;98895.53;4961758;28;20049;-93
2022/05/24 12:13:57;;;;;;;12.30;6.30;;;;;;;18.07;77.13;99065.13;4994586;28;20037;-91
2022/05/24 12:16:52;;;;;;;12.95;7.53;;;;;;;18.01;75.80;99066.41;4993937;28;20059;-93
2022/05/24 12:19:48;;;;;;;8.93;5.43;;;;;;;18.15;74.00;99084.16;4994707;28;20022;-94
2022/05/24 12:22:15;;;;;;;10.98;6.63;;;;;;;18.01;75.95;99050.06;4975159;28;20034;-93
2022/05/24 12:24:40;;;;;;;13.65;5.80;;;;;;;18.17;75.48;99048.41;4961026;28;20038;-93
2022/05/24 12:27:12;;;;;;;11.35;7.03;;;;;;;18.30;74.53;99041.13;4993148;28;20036;-95
2022/05/24 12:29:40;;;;;;;8.50;5.15;;;;;;;18.44;71.86;99021.84;4961675;28;20023;-93
2022/05/24 12:32:07;;;;;;;71.15;58.65;;;;;;;18.69;71.52;99029.06;4976813;28;20026;-94
2022/05/24 12:34:33;;;;;;;10.07;6.32;;;;;;;18.96;73.72;99040.63;4993132;28;20117;-94
2022/05/24 12:37:30;;;;;;;8.90;5.32;;;;;;;19.05;70.31;99021.44;4976194;28;20037;-92
2022/05/24 12:40:17;;;;;;;7.53;4.82;;;;;;;19.20;70.73;99041.91;4971918;28;20070;-93
2022/05/24 12:43:15;;;;;;;8.43;5.63;;;;;;;19.38;71.58;99021.47;4992059;28;20026;-92
2022/05/24 12:45:43;;;;;;;12.60;5.90;;;;;;;19.74;69.68;99022.78;4959041;28;20038;-93